createdAt,value
2019-02-28T00:00:54.715Z,41.33
2019-02-28T00:03:26.103Z,42.00
2019-02-28T00:05:57.543Z,41.02
2019-02-28T00:08:28.089Z,41.63
2019-02-28T00:10:58.633Z,38.88
2019-02-28T00:13:29.106Z,43.68
2019-02-28T00:16:00.198Z,39.10
2019-02-28T00:18:31.760Z,40.12
2019-02-28T00:21:06.051Z,40.88
2019-02-28T00:23:34.546Z,43.85
2019-02-28T00:26:05.034Z,37.53
2019-02-28T00:28:35.583Z,38.17
2019-02-28T00:31:06.023Z,40.63
2019-02-28T00:33:36.487Z,42.78
2019-02-28T00:36:06.913Z,43.17
2019-02-28T00:38:37.458Z,41.33
2019-02-28T00:41:09.317Z,43.30
2019-02-28T00:43:40.077Z,42.05
2019-02-28T00:46:11.016Z,41.25
2019-02-28T00:48:41.552Z,37.33
2019-02-28T00:51:12.000Z,44.93
2019-02-28T00:53:42.582Z,42.65
2019-02-28T00:56:12.999Z,44.65
2019-02-28T00:58:43.456Z,40.05
2019-02-28T01:01:13.882Z,45.17
2019-02-28T01:03:44.495Z,45.05
2019-02-28T01:06:14.923Z,40.75
2019-02-28T01:08:45.523Z,43.63
2019-02-28T01:11:16.050Z,38.88
2019-02-28T01:13:46.538Z,40.55
2019-02-28T01:16:19.338Z,40.90
2019-02-28T01:18:49.217Z,40.78
2019-02-28T01:21:23.727Z,44.30
2019-02-28T01:23:51.820Z,41.20
2019-02-28T01:26:22.236Z,43.60
2019-02-28T01:28:52.715Z,39.13
2019-02-28T01:31:23.157Z,42.13
2019-02-28T01:33:56.031Z,40.15
2019-02-28T01:36:26.062Z,44.18
2019-02-28T01:38:58.037Z,40.43
2019-02-28T01:41:28.672Z,46.73
2019-02-28T01:44:01.621Z,40.60
2019-02-28T01:46:31.271Z,38.48
2019-02-28T01:49:01.751Z,39.15
2019-02-28T01:51:35.635Z,40.20
2019-02-28T01:54:04.364Z,37.42
2019-02-28T01:56:36.993Z,41.80
2019-02-28T01:59:06.997Z,39.83
2019-02-28T02:01:37.413Z,41.98
2019-02-28T02:04:07.960Z,38.78
2019-02-28T02:06:38.399Z,41.95
2019-02-28T02:09:11.074Z,40.63
2019-02-28T02:11:41.215Z,39.83
2019-02-28T02:14:11.884Z,39.38
2019-02-28T02:16:43.330Z,37.00
2019-02-28T02:19:17.554Z,39.00
2019-02-28T02:21:45.909Z,36.08
2019-02-28T02:24:16.370Z,34.67
2019-02-28T02:26:46.879Z,35.90
2019-02-28T02:29:17.360Z,37.25
2019-02-28T02:31:47.963Z,37.83
2019-02-28T02:34:18.430Z,37.55
2019-02-28T02:36:52.949Z,36.28
2019-02-28T02:39:21.116Z,35.48
2019-02-28T02:41:51.605Z,40.52
2019-02-28T02:44:22.147Z,40.95
2019-02-28T02:46:55.935Z,34.98
2019-02-28T02:49:24.751Z,37.93
2019-02-28T02:51:55.198Z,37.75
2019-02-28T02:54:25.677Z,31.05
2019-02-28T02:56:56.175Z,35.95
2019-02-28T02:59:26.636Z,32.60
2019-02-28T03:01:57.252Z,35.48
2019-02-28T03:04:27.928Z,33.55
2019-02-28T03:06:58.347Z,32.83
2019-02-28T03:09:28.813Z,40.35
2019-02-28T03:11:59.325Z,30.85
2019-02-28T03:14:29.991Z,34.90
2019-02-28T03:17:00.445Z,35.33
2019-02-28T03:19:33.815Z,33.45
2019-02-28T03:22:03.129Z,31.20
2019-02-28T03:24:33.907Z,31.15
2019-02-28T03:27:04.433Z,34.38
2019-02-28T03:29:34.912Z,32.58
2019-02-28T03:32:05.357Z,27.37
2019-02-28T03:34:35.893Z,29.70
2019-02-28T03:37:06.352Z,31.20
2019-02-28T03:39:36.821Z,32.55
2019-02-28T03:42:07.341Z,34.08
2019-02-28T03:44:37.848Z,32.40
2019-02-28T03:47:08.283Z,33.95
2019-02-28T03:49:38.747Z,32.75
2019-02-28T03:52:09.202Z,28.70
2019-02-28T03:54:39.662Z,32.98
2019-02-28T03:57:10.106Z,30.92
2019-02-28T03:59:40.641Z,33.30
2019-02-28T04:02:11.159Z,30.82
2019-02-28T04:04:48.417Z,35.28
2019-02-28T04:07:16.127Z,28.83
2019-02-28T04:09:45.933Z,32.13
2019-02-28T04:12:16.400Z,27.32
2019-02-28T04:14:46.841Z,32.08
2019-02-28T04:17:17.258Z,30.48
2019-02-28T04:19:47.731Z,40.03
2019-02-28T04:22:19.536Z,33.63
2019-02-28T04:24:50.309Z,29.98
2019-02-28T04:27:20.750Z,35.52
2019-02-28T04:29:51.240Z,30.88
2019-02-28T04:32:26.391Z,28.07
2019-02-28T04:34:53.960Z,31.77
2019-02-28T04:37:24.462Z,31.27
2019-02-28T04:39:55.002Z,31.55
2019-02-28T04:42:25.516Z,28.90
2019-02-28T04:44:55.975Z,30.80
2019-02-28T04:47:26.425Z,33.53
2019-02-28T04:49:57.735Z,25.70
2019-02-28T04:52:29.490Z,28.62
2019-02-28T04:55:02.600Z,27.20
2019-02-28T04:57:32.179Z,31.35
2019-02-28T05:00:06.705Z,23.62
2019-02-28T05:02:39.668Z,19.02
2019-02-28T05:05:12.672Z,24.72
2019-02-28T05:07:42.532Z,25.10
2019-02-28T05:10:12.998Z,23.42
2019-02-28T05:12:43.509Z,21.68
2019-02-28T05:15:14.723Z,26.48
2019-02-28T05:17:45.159Z,15.55
2019-02-28T05:20:15.694Z,25.55
2019-02-28T05:22:46.200Z,32.00
2019-02-28T05:25:18.657Z,33.08
2019-02-28T05:27:48.945Z,24.52
2019-02-28T05:30:19.894Z,27.02
2019-02-28T05:32:50.464Z,21.12
2019-02-28T05:35:25.472Z,26.02
2019-02-28T05:37:53.229Z,16.87
2019-02-28T05:40:23.698Z,20.43
2019-02-28T05:42:54.735Z,16.60
2019-02-28T05:45:26.334Z,21.33
2019-02-28T05:47:56.766Z,21.93
2019-02-28T05:50:27.240Z,21.23
2019-02-28T05:52:57.677Z,20.85
2019-02-28T05:55:28.171Z,22.48
2019-02-28T05:57:58.677Z,18.62
2019-02-28T06:00:29.209Z,18.57
2019-02-28T06:02:59.695Z,20.37
2019-02-28T06:05:30.235Z,21.80
2019-02-28T06:08:03.591Z,20.52
2019-02-28T06:10:32.869Z,15.43
2019-02-28T06:13:03.446Z,19.40
2019-02-28T06:15:34.241Z,20.02
2019-02-28T06:18:06.076Z,22.17
2019-02-28T06:20:36.533Z,19.57
2019-02-28T06:23:09.287Z,19.42
2019-02-28T06:25:39.574Z,24.85
2019-02-28T06:28:12.056Z,27.10
2019-02-28T06:30:42.877Z,22.60
2019-02-28T06:33:13.584Z,20.25
2019-02-28T06:35:44.050Z,26.52
2019-02-28T06:38:16.280Z,30.15
2019-02-28T06:40:46.662Z,18.67
2019-02-28T06:43:18.816Z,22.65
2019-02-28T06:45:49.337Z,19.65
2019-02-28T06:48:20.855Z,21.68
2019-02-28T06:50:51.967Z,17.57
2019-02-28T06:53:23.484Z,13.22
2019-02-28T06:55:54.009Z,24.18
2019-02-28T06:58:24.461Z,26.25
2019-02-28T07:00:54.934Z,24.82
2019-02-28T07:03:25.387Z,23.32
2019-02-28T07:05:57.545Z,29.18
2019-02-28T07:08:28.980Z,21.35
2019-02-28T07:10:59.531Z,26.00
2019-02-28T07:13:31.137Z,24.15
2019-02-28T07:16:01.668Z,20.52
2019-02-28T07:18:32.207Z,26.85
2019-02-28T07:21:02.654Z,23.95
2019-02-28T07:23:33.070Z,24.37
2019-02-28T07:26:03.550Z,22.15
2019-02-28T07:28:37.428Z,30.55
2019-02-28T07:31:06.118Z,25.27
2019-02-28T07:33:36.537Z,25.55
2019-02-28T07:36:09.317Z,28.35
2019-02-28T07:38:40.305Z,27.05
2019-02-28T07:41:10.836Z,29.95
2019-02-28T07:43:45.943Z,26.17
2019-02-28T07:46:13.425Z,32.35
2019-02-28T07:48:43.920Z,29.63
2019-02-28T07:51:14.395Z,21.65
2019-02-28T07:53:44.821Z,21.20
2019-02-28T07:56:15.297Z,27.25
2019-02-28T07:58:45.791Z,28.45
2019-02-28T08:01:18.369Z,25.62
2019-02-28T08:03:48.392Z,27.82
2019-02-28T08:06:18.863Z,26.45
2019-02-28T08:08:49.284Z,38.30
2019-02-28T08:11:20.605Z,23.95
2019-02-28T08:13:52.323Z,27.05
2019-02-28T08:16:22.813Z,27.42
2019-02-28T08:18:53.226Z,33.53
2019-02-28T08:21:23.690Z,26.55
2019-02-28T08:23:54.176Z,31.62
2019-02-28T08:26:24.637Z,27.40
2019-02-28T08:28:55.132Z,26.48
2019-02-28T08:31:28.303Z,34.00
2019-02-28T08:33:57.769Z,26.12
2019-02-28T08:36:28.236Z,28.62
2019-02-28T08:38:58.663Z,32.95
2019-02-28T08:41:29.495Z,31.68
2019-02-28T08:43:59.995Z,23.50
2019-02-28T08:46:30.535Z,26.70
2019-02-28T08:49:06.312Z,25.10
2019-02-28T08:51:34.057Z,32.23
2019-02-28T08:54:06.071Z,22.80
2019-02-28T08:56:36.658Z,36.48
2019-02-28T08:59:11.732Z,34.80
2019-02-28T09:01:41.329Z,31.27
2019-02-28T09:04:11.501Z,38.15
2019-02-28T09:06:41.971Z,33.13
2019-02-28T09:09:14.598Z,35.28
2019-02-28T09:11:44.686Z,31.20
2019-02-28T09:14:17.828Z,40.45
2019-02-28T09:16:47.339Z,35.85
2019-02-28T09:19:17.828Z,26.07
2019-02-28T09:21:49.397Z,27.58
2019-02-28T09:24:20.465Z,35.45
2019-02-28T09:26:51.344Z,22.70
2019-02-28T09:29:22.236Z,35.35
2019-02-28T09:31:53.684Z,41.23
2019-02-28T09:34:24.111Z,37.48
2019-02-28T09:36:56.674Z,27.67
2019-02-28T09:39:26.765Z,43.63
2019-02-28T09:41:57.283Z,34.67
2019-02-28T09:44:31.509Z,40.52
2019-02-28T09:46:59.869Z,40.90
2019-02-28T09:49:30.365Z,30.68
2019-02-28T09:52:03.219Z,39.83
2019-02-28T09:54:32.961Z,37.30
2019-02-28T09:57:03.448Z,37.88
2019-02-28T09:59:37.347Z,38.50
2019-02-28T10:02:08.389Z,40.23
2019-02-28T10:04:38.241Z,29.27
2019-02-28T10:07:08.787Z,31.12
2019-02-28T10:09:43.867Z,25.70
2019-02-28T10:12:13.091Z,29.27
2019-02-28T10:14:43.595Z,26.73
2019-02-28T10:17:14.134Z,34.10
2019-02-28T10:19:45.950Z,32.85
2019-02-28T10:22:17.703Z,24.43
2019-02-28T10:24:48.126Z,40.78
2019-02-28T10:27:18.595Z,33.90
2019-02-28T10:29:49.019Z,39.38
2019-02-28T10:32:19.494Z,27.30
2019-02-28T10:34:50.001Z,33.80
2019-02-28T10:37:22.857Z,32.38
2019-02-28T10:39:52.695Z,21.05
2019-02-28T10:42:24.136Z,32.98
2019-02-28T10:44:54.561Z,40.25
2019-02-28T10:47:28.140Z,47.48
2019-02-28T10:49:58.238Z,43.98
2019-02-28T10:52:30.601Z,35.75
2019-02-28T10:55:01.158Z,30.75
2019-02-28T10:57:31.873Z,36.23
2019-02-28T11:00:02.294Z,36.33
2019-02-28T11:02:33.035Z,34.95
2019-02-28T11:05:03.472Z,26.48
2019-02-28T11:07:37.376Z,37.70
2019-02-28T11:10:08.835Z,35.43
2019-02-28T11:12:39.387Z,45.90
2019-02-28T11:15:10.430Z,29.05
2019-02-28T11:17:42.425Z,25.02
2019-02-28T11:20:21.855Z,38.23
2019-02-28T11:22:45.085Z,34.38
2019-02-28T11:25:16.945Z,31.87
2019-02-28T11:27:47.481Z,36.20
2019-02-28T11:30:24.164Z,41.40
2019-02-28T11:32:54.634Z,27.52
2019-02-28T11:35:25.050Z,44.75
2019-02-28T11:37:56.231Z,25.08
2019-02-28T11:40:28.909Z,26.75
2019-02-28T11:43:02.817Z,33.08
2019-02-28T11:45:36.427Z,35.30
2019-02-28T11:48:19.358Z,34.65
2019-02-28T11:50:48.127Z,34.35
2019-02-28T11:53:19.260Z,40.15
2019-02-28T11:55:53.408Z,27.98
2019-02-28T11:58:22.024Z,36.85
2019-02-28T12:00:52.898Z,41.68
2019-02-28T12:03:23.499Z,37.42
2019-02-28T12:05:53.995Z,42.62
2019-02-28T12:08:24.535Z,42.35
2019-02-28T12:10:55.044Z,25.92
2019-02-28T12:13:25.574Z,33.63
2019-02-28T12:15:57.434Z,39.73
2019-02-28T12:18:27.972Z,28.47
2019-02-28T12:20:58.630Z,40.98
2019-02-28T12:23:30.556Z,40.90
2019-02-28T12:26:01.087Z,44.23
2019-02-28T12:28:32.003Z,37.42
2019-02-28T12:31:02.432Z,37.25
2019-02-28T12:33:33.001Z,24.98
2019-02-28T12:36:03.632Z,41.40
2019-02-28T12:38:34.182Z,48.65
2019-02-28T12:41:04.803Z,40.50
2019-02-28T12:43:35.346Z,34.80
2019-02-28T12:46:06.739Z,35.17
2019-02-28T12:48:37.353Z,46.18
2019-02-28T12:51:07.853Z,44.38
2019-02-28T12:53:38.406Z,30.40
2019-02-28T12:56:11.265Z,29.52
2019-02-28T12:58:41.722Z,38.48
2019-02-28T13:01:12.394Z,38.35
2019-02-28T13:03:42.933Z,41.50
2019-02-28T13:06:13.423Z,37.53
2019-02-28T13:08:43.973Z,36.30
2019-02-28T13:11:15.365Z,39.95
2019-02-28T13:13:45.851Z,24.32
2019-02-28T13:16:17.441Z,29.98
2019-02-28T13:18:48.438Z,33.02
2019-02-28T13:21:18.945Z,40.08
2019-02-28T13:23:49.435Z,30.48
2019-02-28T13:26:19.852Z,32.38
2019-02-28T13:28:50.363Z,32.85
2019-02-28T13:31:20.870Z,44.10
2019-02-28T13:33:52.764Z,40.83
2019-02-28T13:36:24.043Z,39.23
2019-02-28T13:38:55.865Z,32.30
2019-02-28T13:41:27.731Z,34.30
2019-02-28T13:43:59.521Z,29.77
2019-02-28T13:46:33.943Z,44.42
2019-02-28T13:49:03.965Z,34.55
2019-02-28T13:51:40.595Z,40.85
2019-02-28T13:54:07.429Z,39.55
2019-02-28T13:56:37.866Z,30.57
2019-02-28T13:59:08.439Z,39.42
2019-02-28T14:01:38.864Z,35.50
2019-02-28T14:04:09.358Z,38.75
2019-02-28T14:06:39.784Z,41.92
2019-02-28T14:09:10.255Z,27.62
2019-02-28T14:11:41.836Z,46.13
2019-02-28T14:14:12.929Z,43.70
2019-02-28T14:16:43.432Z,34.80
2019-02-28T14:19:16.707Z,48.78
2019-02-28T14:21:46.168Z,35.48
2019-02-28T14:24:16.722Z,49.93
2019-02-28T14:26:49.540Z,53.60
2019-02-28T14:29:19.713Z,48.65
2019-02-28T14:31:50.151Z,50.15
2019-02-28T14:34:20.686Z,50.58
2019-02-28T14:36:51.469Z,36.93
2019-02-28T14:39:22.036Z,35.90
2019-02-28T14:41:52.763Z,49.03
2019-02-28T14:44:24.515Z,40.23
2019-02-28T14:46:54.947Z,43.08
2019-02-28T14:49:25.517Z,47.38
2019-02-28T14:51:56.010Z,48.20
2019-02-28T14:54:26.555Z,19.45
2019-02-28T14:56:56.975Z,46.60
2019-02-28T14:59:28.594Z,36.25
2019-02-28T15:01:59.653Z,48.75
2019-02-28T15:04:30.245Z,53.42
2019-02-28T15:07:03.013Z,51.95
2019-02-28T15:09:33.046Z,48.83
2019-02-28T15:12:03.616Z,54.65
2019-02-28T15:14:34.164Z,37.48
2019-02-28T15:17:06.809Z,57.80
2019-02-28T15:19:36.966Z,46.20
2019-02-28T15:22:07.464Z,46.85
2019-02-28T15:24:40.560Z,47.45
2019-02-28T15:27:10.114Z,51.85
2019-02-28T15:29:40.777Z,60.85
2019-02-28T15:32:11.199Z,47.17
2019-02-28T15:34:42.092Z,63.13
2019-02-28T15:37:13.070Z,61.37
2019-02-28T15:39:43.610Z,59.40
2019-02-28T15:42:14.036Z,61.50
2019-02-28T15:44:44.577Z,58.05
2019-02-28T15:47:15.024Z,61.42
2019-02-28T15:49:45.552Z,60.75
2019-02-28T15:52:16.081Z,62.27
2019-02-28T15:54:46.556Z,70.52
2019-02-28T15:57:17.076Z,79.60
2019-02-28T15:59:49.827Z,63.40
2019-02-28T16:02:19.787Z,69.03
2019-02-28T16:04:50.251Z,83.42
2019-02-28T16:07:20.684Z,75.30
2019-02-28T16:09:54.063Z,79.97
2019-02-28T16:12:23.357Z,71.45
2019-02-28T16:14:53.866Z,99.83
2019-02-28T16:17:24.283Z,80.20
2019-02-28T16:19:56.247Z,83.65
2019-02-28T16:22:27.034Z,95.07
2019-02-28T16:24:57.576Z,81.50
2019-02-28T16:27:29.613Z,84.77
2019-02-28T16:30:01.327Z,82.60
2019-02-28T16:32:33.421Z,90.22
2019-02-28T16:37:39.866Z,88.35
2019-02-28T16:40:20.709Z,97.97
2019-02-28T16:42:51.891Z,93.60
2019-02-28T16:45:29.655Z,89.28
2019-02-28T16:48:03.015Z,90.40
2019-02-28T16:50:33.686Z,91.30
2019-02-28T16:53:04.314Z,91.70
2019-02-28T16:55:34.879Z,89.60
2019-02-28T16:58:05.388Z,87.57
2019-02-28T17:00:35.895Z,87.30
2019-02-28T17:03:07.317Z,87.45
2019-02-28T17:05:38.693Z,85.42
2019-02-28T17:08:09.208Z,98.75
2019-02-28T17:10:43.242Z,86.55
2019-02-28T17:13:22.428Z,92.15
2019-02-28T17:16:10.749Z,91.57
2019-02-28T17:18:42.324Z,97.02
2019-02-28T17:21:16.718Z,99.87
2019-02-28T17:23:45.361Z,100.90
2019-02-28T17:26:16.031Z,95.07
2019-02-28T17:28:53.914Z,103.65
2019-02-28T17:31:31.824Z,96.50
2019-02-28T17:34:02.343Z,103.53
2019-02-28T17:36:32.872Z,94.97
2019-02-28T17:42:08.326Z,100.07
2019-02-28T17:44:40.583Z,90.28
2019-02-28T17:47:26.391Z,101.33
2019-02-28T17:50:05.754Z,102.58
2019-02-28T17:52:53.714Z,98.45
2019-02-28T17:56:03.868Z,109.97
2019-02-28T17:58:56.118Z,96.42
2019-02-28T18:01:48.028Z,107.30
2019-02-28T18:04:37.043Z,110.42
2019-02-28T18:07:36.425Z,100.70
2019-02-28T18:10:32.502Z,109.05
2019-02-28T18:13:12.504Z,104.07
2019-02-28T18:15:52.181Z,104.35
2019-02-28T18:18:25.881Z,110.17
2019-02-28T18:21:20.571Z,103.67
2019-02-28T18:24:10.950Z,106.60
2019-02-28T18:26:56.606Z,104.12
2019-02-28T18:29:39.207Z,99.00
2019-02-28T18:32:09.993Z,100.05
2019-02-28T18:34:40.500Z,104.32
2019-02-28T18:37:11.910Z,107.37
2019-02-28T18:39:44.717Z,103.45
2019-02-28T18:42:16.082Z,106.72
2019-02-28T18:44:47.107Z,107.20
2019-02-28T18:47:18.642Z,115.52
2019-02-28T18:49:49.161Z,106.97
2019-02-28T18:52:20.246Z,106.12
2019-02-28T18:54:50.986Z,103.78
2019-02-28T18:57:27.795Z,99.90
2019-02-28T18:59:58.329Z,102.55
2019-02-28T19:02:29.966Z,104.75
2019-02-28T19:05:00.497Z,105.10
2019-02-28T19:07:31.144Z,109.48
2019-02-28T19:10:01.745Z,109.87
2019-02-28T19:12:32.479Z,115.85
2019-02-28T19:15:03.188Z,125.02
2019-02-28T19:17:34.102Z,116.90
2019-02-28T19:20:07.442Z,129.23
2019-02-28T19:22:38.075Z,120.95
2019-02-28T19:25:10.613Z,124.53
2019-02-28T19:27:41.162Z,115.10
2019-02-28T19:30:13.923Z,112.15
2019-02-28T19:32:48.686Z,115.15
2019-02-28T19:35:20.103Z,117.28
2019-02-28T19:37:50.652Z,152.60
2019-02-28T19:40:21.177Z,143.02
2019-02-28T19:42:51.776Z,146.70
2019-02-28T19:45:29.519Z,141.15
2019-02-28T19:48:00.009Z,113.40
2019-02-28T19:50:30.475Z,125.07
2019-02-28T19:53:01.031Z,114.62
2019-02-28T19:55:32.690Z,107.25
2019-02-28T19:58:03.596Z,105.47
2019-02-28T20:00:34.054Z,100.25
2019-02-28T20:03:04.708Z,106.80
2019-02-28T20:05:35.304Z,108.22
2019-02-28T20:08:05.836Z,114.35
2019-02-28T20:10:36.292Z,107.32
2019-02-28T20:13:06.844Z,110.10
2019-02-28T20:15:39.177Z,103.00
2019-02-28T20:18:09.823Z,109.17
2019-02-28T20:20:40.407Z,89.13
2019-02-28T20:23:10.938Z,128.38
2019-02-28T20:25:41.376Z,112.35
2019-02-28T20:28:11.924Z,133.50
2019-02-28T20:30:42.450Z,104.95
2019-02-28T20:33:13.134Z,94.20
2019-02-28T20:35:43.663Z,109.57
2019-02-28T20:38:15.197Z,119.55
2019-02-28T20:40:46.711Z,109.37
2019-02-28T20:43:17.396Z,108.85
2019-02-28T20:45:47.907Z,110.40
2019-02-28T20:48:25.268Z,85.70
2019-02-28T20:50:55.784Z,79.23
2019-02-28T20:53:26.336Z,99.60
2019-02-28T20:55:56.852Z,98.07
2019-02-28T20:58:27.379Z,101.43
2019-02-28T21:00:57.874Z,97.90
2019-02-28T21:03:28.420Z,70.87
2019-02-28T21:05:58.924Z,77.50
2019-02-28T21:08:29.453Z,92.73
2019-02-28T21:11:00.012Z,80.83
2019-02-28T21:13:30.554Z,97.87
2019-02-28T21:16:01.085Z,105.83
2019-02-28T21:18:31.640Z,102.33
2019-02-28T21:21:02.186Z,100.07
2019-02-28T21:23:32.738Z,80.23
2019-02-28T21:26:03.252Z,84.35
2019-02-28T21:28:33.814Z,77.53
2019-02-28T21:31:05.093Z,90.67
2019-02-28T21:33:36.827Z,83.72
2019-02-28T21:36:07.326Z,84.63
2019-02-28T21:38:38.858Z,73.80
2019-02-28T21:41:09.433Z,93.57
2019-02-28T21:43:40.159Z,82.13
2019-02-28T21:46:10.656Z,86.40
2019-02-28T21:48:42.299Z,79.67
2019-02-28T21:51:13.834Z,83.47
2019-02-28T21:53:44.347Z,88.80
2019-02-28T21:56:14.863Z,79.25
2019-02-28T21:58:45.479Z,74.23
2019-02-28T22:01:15.908Z,75.10
2019-02-28T22:03:46.451Z,82.53
2019-02-28T22:06:16.952Z,86.60
2019-02-28T22:08:47.438Z,101.30
2019-02-28T22:11:17.945Z,84.40
2019-02-28T22:13:48.400Z,76.67
2019-02-28T22:16:18.916Z,58.07
2019-02-28T22:18:49.391Z,71.20
2019-02-28T22:21:19.865Z,74.03
2019-02-28T22:23:50.305Z,76.00
2019-02-28T22:26:20.822Z,76.97
2019-02-28T22:28:51.360Z,78.57
2019-02-28T22:31:26.904Z,75.10
2019-02-28T22:34:01.783Z,72.90
2019-02-28T22:36:33.924Z,82.00
2019-02-28T22:39:05.302Z,73.40
2019-02-28T22:41:37.340Z,80.77
2019-02-28T22:44:07.879Z,81.23
2019-02-28T22:46:38.324Z,86.67
2019-02-28T22:49:08.797Z,72.03
2019-02-28T22:51:39.236Z,65.10
2019-02-28T22:54:09.817Z,68.47
2019-02-28T22:56:40.346Z,67.53
2019-02-28T22:59:10.890Z,72.90
2019-02-28T23:01:41.778Z,70.63
2019-02-28T23:04:12.324Z,76.10
2019-02-28T23:06:42.729Z,62.97
2019-02-28T23:09:13.191Z,71.97
2019-02-28T23:11:43.705Z,61.83
2019-02-28T23:14:14.184Z,61.98
2019-02-28T23:16:44.691Z,51.17
2019-02-28T23:19:15.186Z,58.77
2019-02-28T23:21:46.076Z,59.57
2019-02-28T23:24:16.740Z,50.03
2019-02-28T23:27:07.155Z,56.70
2019-02-28T23:29:40.914Z,55.33
2019-02-28T23:32:32.693Z,63.63
2019-02-28T23:35:04.130Z,53.20
2019-02-28T23:37:34.626Z,44.53
2019-02-28T23:40:06.440Z,58.90
2019-02-28T23:42:36.954Z,54.73
2019-02-28T23:45:08.041Z,47.45
2019-02-28T23:47:38.528Z,57.77
2019-02-28T23:50:09.875Z,56.77
2019-02-28T23:52:40.331Z,56.20
2019-02-28T23:55:10.771Z,49.75
2019-02-28T23:57:41.216Z,52.00
